Time;durP1;ratioP1;P1;durP2;ratioP2;P2;SDS_P1;SDS_P2;PMS_P1;PMS_P2;Temp;Humidity;BMP_temperature;BMP_pressure;BME280_temperature;BME280_humidity;BME280_pressure;Samples;Min_cycle;Max_cycle;Signal;HPM_P1;HPM_P2
2021/05/01 00:00:13;;;;;;;4.13;2.70;;;16.30;88.90;23.60;98700.00;;;;5048730;28;20444;-74
2021/05/01 00:02:39;;;;;;;6.10;2.80;;;16.20;88.80;23.60;98705.00;;;;5048387;28;20461;-75
2021/05/01 00:05:06;;;;;;;4.47;3.07;;;16.20;88.90;23.60;98708.00;;;;5030939;28;20855;-74
2021/05/01 00:07:32;;;;;;;4.30;2.60;;;16.30;89.00;23.70;98706.00;;;;5031415;28;20206;-75
2021/05/01 00:09:57;;;;;;;4.13;2.53;;;16.20;88.90;23.70;98710.00;;;;5048143;28;20973;-75
2021/05/01 00:12:23;;;;;;;4.50;2.70;;;16.20;88.90;23.60;98703.00;;;;5047673;28;20240;-75
2021/05/01 00:14:49;;;;;;;4.47;2.70;;;16.20;88.90;23.70;98707.00;;;;5034609;28;20595;-75
2021/05/01 00:17:14;;;;;;;4.00;2.50;;;16.20;88.90;23.60;98707.00;;;;5046751;28;20198;-73
2021/05/01 00:19:40;;;;;;;4.27;2.60;;;16.20;88.90;23.60;98705.00;;;;5067622;28;20182;-72
2021/05/01 00:22:06;;;;;;;4.30;2.70;;;16.20;89.00;23.60;98694.00;;;;5069021;28;20198;-72
2021/05/01 00:24:32;;;;;;;4.60;3.10;;;16.20;88.90;23.70;98702.00;;;;5068162;28;20268;-72
2021/05/01 00:26:57;;;;;;;4.33;2.90;;;16.20;88.90;23.60;98699.00;;;;5068194;28;20241;-72
2021/05/01 00:29:23;;;;;;;3.90;2.50;;;16.20;88.90;23.70;98705.00;;;;5068299;28;20209;-72
2021/05/01 00:31:49;;;;;;;4.10;2.60;;;16.20;89.00;23.60;98709.00;;;;5050838;28;20203;-75
2021/05/01 00:34:14;;;;;;;4.23;2.70;;;16.20;89.00;23.60;98716.00;;;;5067350;28;20182;-75
2021/05/01 00:36:40;;;;;;;4.87;2.80;;;16.20;89.00;23.80;98719.00;;;;5052008;28;20225;-75
2021/05/01 00:39:06;;;;;;;4.40;2.57;;;16.20;89.00;23.80;98722.00;;;;5067801;28;20185;-75
2021/05/01 00:41:33;;;;;;;4.00;2.60;;;16.20;89.00;23.70;98711.00;;;;5051460;28;20437;-75
2021/05/01 00:43:59;;;;;;;4.30;2.43;;;16.10;88.90;23.80;98720.00;;;;5068077;28;20205;-74
2021/05/01 00:46:25;;;;;;;4.63;3.00;;;16.20;89.00;23.60;98721.00;;;;5067932;28;20437;-74
2021/05/01 00:48:50;;;;;;;5.37;3.00;;;16.10;88.90;23.70;98725.00;;;;5035060;28;20845;-74
2021/05/01 00:51:16;;;;;;;4.53;2.80;;;16.10;89.00;23.70;98710.00;;;;5068261;28;20511;-74
2021/05/01 00:53:42;;;;;;;4.57;3.00;;;16.20;89.10;23.70;98684.00;;;;5067703;28;20235;-74
2021/05/01 00:56:07;;;;;;;4.27;2.80;;;16.10;89.80;23.60;98719.00;;;;5034690;28;20596;-74
2021/05/01 00:58:33;;;;;;;4.20;2.40;;;16.10;89.00;23.70;98714.00;;;;5051495;28;20573;-74
2021/05/01 01:03:25;;;;;;;4.47;2.70;;;16.10;89.00;23.60;98714.00;;;;5051343;28;20710;-74
2021/05/01 01:05:50;;;;;;;4.70;2.90;;;16.10;89.00;23.70;98690.00;;;;5067933;28;20201;-75
2021/05/01 01:08:16;;;;;;;4.80;2.97;;;16.10;89.00;23.80;98719.00;;;;5049957;28;20216;-74
2021/05/01 01:10:42;;;;;;;4.70;2.80;;;16.10;89.00;23.70;98727.00;;;;5051027;28;20478;-74
2021/05/01 01:13:08;;;;;;;4.50;2.73;;;16.10;89.00;23.80;98726.00;;;;5067040;28;20202;-75
2021/05/01 01:15:34;;;;;;;4.70;2.63;;;16.10;89.00;23.80;98728.00;;;;5067105;28;20441;-74
2021/05/01 01:18:00;;;;;;;4.40;2.80;;;16.10;89.00;23.70;98726.00;;;;5050182;28;20718;-74
2021/05/01 01:20:26;;;;;;;4.80;3.40;;;16.10;89.00;23.70;98728.00;;;;5066959;28;20236;-74
2021/05/01 01:22:52;;;;;;;4.70;3.40;;;16.10;89.10;23.60;98728.00;;;;5050425;28;20456;-75
2021/05/01 01:25:18;;;;;;;5.33;3.23;;;16.10;89.00;23.70;98729.00;;;;5067451;28;20515;-74
2021/05/01 01:27:47;;;;;;;4.87;3.33;;;16.10;89.00;23.80;98745.00;;;;5049741;28;20488;-74
2021/05/01 01:30:14;;;;;;;4.83;3.43;;;16.10;89.00;23.80;98741.00;;;;5066384;28;20261;-73
2021/05/01 01:32:40;;;;;;;4.60;3.20;;;16.10;89.00;23.70;98735.00;;;;5050349;28;20511;-73
2021/05/01 01:35:07;;;;;;;5.47;3.60;;;16.10;89.00;23.60;98701.00;;;;5065366;28;20473;-73
2021/05/01 01:37:33;;;;;;;5.07;3.70;;;16.10;89.00;23.90;98735.00;;;;5050229;28;20466;-73
2021/05/01 01:39:58;;;;;;;5.37;3.70;;;16.10;89.00;23.90;98738.00;;;;5050433;28;20444;-73
2021/05/01 01:42:24;;;;;;;5.60;3.10;;;16.10;89.00;23.90;98734.00;;;;5032932;28;20428;-73
2021/05/01 01:44:50;;;;;;;4.80;3.63;;;16.10;89.00;23.80;98745.00;;;;5050378;28;20221;-73
2021/05/01 01:47:15;;;;;;;4.77;2.83;;;16.10;89.00;23.60;98730.00;;;;5049432;28;20690;-73
2021/05/01 01:49:41;;;;;;;5.23;3.50;;;16.10;89.00;23.70;98744.00;;;;5050781;28;20544;-74
2021/05/01 01:52:07;;;;;;;4.93;3.40;;;16.10;89.00;23.70;98747.00;;;;5067063;28;20203;-73
2021/05/01 01:54:33;;;;;;;4.50;3.10;;;16.10;89.00;23.90;98737.00;;;;5066213;28;20769;-74
2021/05/01 01:57:00;;;;;;;4.87;3.30;;;16.10;88.90;23.80;98719.00;;;;5065456;28;20539;-74
2021/05/01 01:59:29;;;;;;;4.80;3.00;;;16.00;88.90;23.80;98738.00;;;;5033236;28;20415;-74
2021/05/01 02:01:55;;;;;;;5.17;3.63;;;16.00;88.90;23.70;98745.00;;;;5066154;28;20484;-75
2021/05/01 02:04:20;;;;;;;6.20;3.63;;;16.10;89.00;23.70;98739.00;;;;5032376;28;20507;-75
2021/05/01 02:06:46;;;;;;;5.00;3.33;;;16.00;88.80;23.80;98741.00;;;;5051336;28;20438;-73
2021/05/01 02:09:12;;;;;;;5.60;3.77;;;16.00;88.80;23.80;98736.00;;;;5049303;28;20206;-73
2021/05/01 02:11:38;;;;;;;5.30;3.60;;;16.00;88.80;23.90;98733.00;;;;5051160;28;20958;-73
2021/05/01 02:14:07;;;;;;;5.10;3.57;;;16.00;88.80;23.70;98735.00;;;;5049485;28;20217;-73
2021/05/01 02:16:33;;;;;;;5.50;3.67;;;16.00;88.80;23.70;98728.00;;;;5049195;28;20190;-73
2021/05/01 02:18:59;;;;;;;5.43;3.70;;;16.00;88.80;23.70;98727.00;;;;5066455;28;20750;-73
2021/05/01 02:21:25;;;;;;;5.00;3.60;;;16.00;88.80;23.60;98729.00;;;;5049906;28;20435;-73
2021/05/01 02:23:50;;;;;;;5.60;3.73;;;16.00;88.80;23.80;98722.00;;;;5048770;28;20443;-73
2021/05/01 02:26:17;;;;;;;5.47;3.90;;;16.00;88.80;23.80;98728.00;;;;5049370;28;20190;-73
2021/05/01 02:28:43;;;;;;;5.60;3.93;;;16.00;88.80;23.60;98733.00;;;;5065896;28;20189;-73
2021/05/01 02:31:09;;;;;;;5.20;3.83;;;16.00;88.80;23.80;98722.00;;;;5065533;28;20449;-74
2021/05/01 02:33:35;;;;;;;6.50;4.27;;;16.00;88.80;23.80;98736.00;;;;5066336;28;20514;-73
2021/05/01 02:36:01;;;;;;;5.83;4.30;;;16.00;88.80;23.40;98754.00;;;;5049126;28;20471;-73
2021/05/01 02:38:26;;;;;;;7.97;3.67;;;16.00;88.80;23.50;98744.00;;;;5048838;28;20746;-73
2021/05/01 02:40:52;;;;;;;6.13;4.13;;;16.00;88.80;23.80;98751.00;;;;5064920;28;20174;-73
2021/05/01 02:43:18;;;;;;;5.27;3.67;;;16.00;88.80;23.90;98748.00;;;;5049184;28;20206;-73
2021/05/01 02:45:43;;;;;;;4.80;3.30;;;16.00;88.80;23.60;98751.00;;;;5049726;28;20214;-73
2021/05/01 02:48:10;;;;;;;5.63;4.03;;;16.00;88.80;23.60;98746.00;;;;5050681;28;20213;-73
2021/05/01 02:50:36;;;;;;;5.17;4.00;;;16.00;88.70;23.50;98754.00;;;;5048950;28;20198;-73
2021/05/01 02:53:02;;;;;;;6.20;4.40;;;16.00;88.70;23.70;98759.00;;;;5048161;28;20492;-72
2021/05/01 02:55:27;;;;;;;5.17;3.70;;;16.00;88.80;23.60;98755.00;;;;5050256;28;20542;-73
2021/05/01 02:57:53;;;;;;;5.40;3.70;;;16.00;88.80;23.70;98754.00;;;;5065625;28;20202;-74
2021/05/01 03:00:23;;;;;;;5.07;4.00;;;15.90;88.70;23.80;98761.00;;;;5064559;28;20186;-74
2021/05/01 03:02:49;;;;;;;8.20;5.07;;;15.90;88.70;23.80;98759.00;;;;5049439;28;20263;-74
2021/05/01 03:05:15;;;;;;;5.63;4.20;;;15.90;88.70;23.60;98760.00;;;;5064714;28;20990;-74
2021/05/01 03:07:41;;;;;;;6.33;4.80;;;15.90;88.70;23.30;98776.00;;;;5048905;28;20206;-73
2021/05/01 03:10:10;;;;;;;5.13;4.10;;;15.90;88.70;23.60;98770.00;;;;5048519;28;20403;-73
2021/05/01 03:12:36;;;;;;;5.10;3.80;;;15.90;88.70;23.90;98768.00;;;;5048250;28;20959;-73
2021/05/01 03:15:04;;;;;;;5.60;4.23;;;15.90;88.70;23.80;98781.00;;;;5065421;28;20414;-73
2021/05/01 03:17:30;;;;;;;5.50;4.17;;;15.90;88.70;23.90;98766.00;;;;5048745;28;20660;-73
2021/05/01 03:19:56;;;;;;;5.40;4.30;;;15.90;88.60;23.80;98774.00;;;;5063962;28;20407;-74
2021/05/01 03:22:21;;;;;;;5.40;4.30;;;15.90;88.60;23.80;98769.00;;;;5065742;28;20448;-73
2021/05/01 03:24:47;;;;;;;5.47;4.23;;;15.90;88.60;23.80;98774.00;;;;5049731;28;20549;-73
2021/05/01 03:27:13;;;;;;;5.60;4.60;;;15.90;88.60;23.80;98780.00;;;;5048246;28;20492;-73
2021/05/01 03:29:39;;;;;;;5.20;4.00;;;15.90;88.60;23.90;98780.00;;;;5065710;28;20174;-73
2021/05/01 03:32:05;;;;;;;6.80;5.23;;;15.90;88.60;23.70;98793.00;;;;5064643;28;20976;-73
2021/05/01 03:34:31;;;;;;;5.50;4.20;;;15.90;88.60;23.90;98779.00;;;;5064082;28;20204;-73
2021/05/01 03:36:57;;;;;;;5.10;3.90;;;15.90;88.60;23.90;98797.00;;;;5048359;28;20446;-73
2021/05/01 03:39:23;;;;;;;5.53;4.60;;;15.90;88.60;24.00;98796.00;;;;5065491;28;20185;-73
2021/05/01 03:41:49;;;;;;;7.03;4.30;;;15.90;88.50;23.90;98798.00;;;;5064347;28;20236;-74
2021/05/01 03:44:15;;;;;;;5.87;4.50;;;15.90;88.60;23.70;98802.00;;;;5064633;28;20210;-74
2021/05/01 03:46:41;;;;;;;6.60;5.30;;;15.90;88.60;23.90;98817.00;;;;5064946;28;20759;-74
2021/05/01 03:49:07;;;;;;;6.47;4.50;;;15.80;88.60;23.90;98823.00;;;;5064517;28;20185;-72
2021/05/01 03:51:32;;;;;;;6.27;5.20;;;15.90;88.60;23.90;98818.00;;;;5065168;28;20186;-72
2021/05/01 03:54:03;;;;;;;5.90;4.43;;;15.80;88.60;23.80;98829.00;;;;5068428;28;20184;-72
2021/05/01 03:56:34;;;;;;;6.57;5.13;;;15.80;88.60;23.60;98831.00;;;;5051131;28;20192;-72
2021/05/01 03:59:00;;;;;;;6.20;5.00;;;15.80;88.60;23.70;98841.00;;;;5053441;28;20441;-72
2021/05/01 04:01:26;;;;;;;6.17;4.87;;;15.80;88.60;23.70;98848.00;;;;5051964;28;20428;-72
2021/05/01 04:03:52;;;;;;;7.10;5.27;;;15.80;88.50;23.40;98839.00;;;;5068904;28;20478;-72
2021/05/01 04:06:18;;;;;;;6.23;4.80;;;15.80;88.50;23.60;98851.00;;;;5068974;28;20469;-72
2021/05/01 04:08:43;;;;;;;6.60;5.50;;;15.80;88.60;23.80;98860.00;;;;5068567;28;20676;-73
2021/05/01 04:11:10;;;;;;;6.30;4.83;;;15.80;88.50;23.60;98848.00;;;;5068648;28;20206;-73
2021/05/01 04:13:42;;;;;;;8.67;5.30;;;15.80;88.50;23.70;98857.00;;;;5069020;28;20209;-73
2021/05/01 04:16:08;;;;;;;6.83;5.57;;;15.80;88.50;23.70;98852.00;;;;5050987;28;20407;-72
2021/05/01 04:18:34;;;;;;;6.23;5.03;;;15.80;88.50;23.70;98862.00;;;;5051992;28;20526;-73
2021/05/01 04:21:00;;;;;;;6.40;5.30;;;15.80;88.50;23.60;98862.00;;;;5051782;28;20289;-73
2021/05/01 04:23:25;;;;;;;6.47;5.67;;;15.80;88.50;23.70;98870.00;;;;5067957;28;20205;-73
2021/05/01 04:25:51;;;;;;;6.93;5.57;;;15.80;88.50;23.50;98874.00;;;;5034995;28;20278;-72
2021/05/01 04:28:17;;;;;;;6.50;5.43;;;15.80;88.50;23.60;98878.00;;;;5052116;28;20229;-73
2021/05/01 04:30:42;;;;;;;9.87;6.40;;;15.80;88.40;23.50;98883.00;;;;5067204;28;20186;-73
2021/05/01 04:33:08;;;;;;;7.40;5.93;;;15.80;88.40;23.30;98886.00;;;;5068928;28;20367;-73
2021/05/01 04:35:34;;;;;;;8.50;5.90;;;15.80;88.40;23.30;98895.00;;;;5068155;28;20233;-74
2021/05/01 04:38:00;;;;;;;6.73;6.00;;;15.80;88.50;23.50;98892.00;;;;5051565;28;20206;-73
2021/05/01 04:40:25;;;;;;;6.43;5.50;;;15.80;88.50;23.50;98908.00;;;;5052207;28;20193;-74
2021/05/01 04:42:52;;;;;;;7.20;6.03;;;15.80;88.40;23.30;98906.00;;;;5068346;28;20217;-73
2021/05/01 04:45:19;;;;;;;8.00;5.20;;;15.70;88.30;23.10;98902.00;;;;5035068;28;20221;-72
2021/05/01 04:47:44;;;;;;;8.43;6.77;;;15.70;88.30;23.30;98915.00;;;;5068237;28;20452;-73
2021/05/01 04:50:12;;;;;;;7.70;6.27;;;15.80;89.30;23.20;98916.00;;;;5051877;28;20762;-72
2021/05/01 04:52:38;;;;;;;8.43;6.23;;;15.70;88.20;23.30;98931.00;;;;5051095;28;20328;-75
2021/05/01 04:55:13;;;;;;;8.60;6.00;;;15.80;88.30;23.20;98920.00;;;;5051683;28;20494;-74
2021/05/01 04:57:40;;;;;;;7.70;6.77;;;15.70;88.30;23.10;98907.00;;;;5050962;28;20431;-73
2021/05/01 05:00:07;;;;;;;7.97;6.97;;;15.70;88.30;23.30;98922.00;;;;5052882;28;20441;-73
2021/05/01 05:02:33;;;;;;;7.27;6.43;;;15.70;88.30;23.20;98919.00;;;;5050521;28;20495;-74
2021/05/01 05:04:59;;;;;;;7.83;7.07;;;15.80;88.50;23.40;98920.00;;;;5066799;28;20451;-74
2021/05/01 05:07:24;;;;;;;8.40;6.70;;;15.70;88.20;23.40;98928.00;;;;5067774;28;20206;-73
2021/05/01 05:09:50;;;;;;;9.50;7.50;;;15.70;88.20;23.30;98926.00;;;;5052711;28;20189;-74
2021/05/01 05:12:16;;;;;;;7.73;6.43;;;15.70;88.20;23.20;98925.00;;;;5050198;28;20304;-74
2021/05/01 05:14:41;;;;;;;7.87;6.50;;;15.80;88.30;23.20;98935.00;;;;5049347;28;20441;-73
2021/05/01 05:17:07;;;;;;;9.03;6.57;;;15.70;88.20;23.00;98931.00;;;;5051806;28;20476;-74
2021/05/01 05:19:33;;;;;;;8.83;6.33;;;15.70;88.20;23.00;98935.00;;;;5051730;28;20218;-74
2021/05/01 05:21:59;;;;;;;7.67;6.87;;;15.70;88.10;23.10;98940.00;;;;5067272;28;20206;-74
2021/05/01 05:24:24;;;;;;;7.23;6.50;;;15.70;88.20;23.10;98953.00;;;;5067783;28;20825;-74
2021/05/01 05:26:50;;;;;;;7.17;6.00;;;15.70;88.10;23.10;98933.00;;;;5051676;28;20251;-74
2021/05/01 05:29:16;;;;;;;8.20;7.13;;;15.70;88.20;23.20;98942.00;;;;5067538;28;20182;-73
2021/05/01 05:31:41;;;;;;;8.33;6.70;;;15.70;88.10;23.20;98938.00;;;;5049908;28;20626;-73
2021/05/01 05:34:07;;;;;;;8.47;6.70;;;15.70;88.00;23.30;98942.00;;;;5051758;28;20182;-73
2021/05/01 05:36:33;;;;;;;8.03;7.23;;;15.70;88.10;23.20;98930.00;;;;5067382;28;20356;-74
2021/05/01 05:38:58;;;;;;;8.13;7.07;;;15.70;88.00;23.20;98943.00;;;;5067307;28;20185;-73
2021/05/01 05:41:24;;;;;;;7.80;7.00;;;15.70;87.90;23.10;98942.00;;;;5051054;28;20178;-73
2021/05/01 05:43:50;;;;;;;8.00;6.50;;;15.70;87.80;23.10;98956.00;;;;5067213;28;20722;-74
2021/05/01 05:46:17;;;;;;;7.83;6.80;;;15.70;87.70;23.10;98954.00;;;;5066551;28;20671;-73
2021/05/01 05:48:43;;;;;;;8.10;7.00;;;15.70;87.70;23.10;98953.00;;;;5050901;28;20881;-74
2021/05/01 05:51:09;;;;;;;8.80;7.00;;;15.70;87.80;23.00;98975.00;;;;5066797;28;20443;-73
2021/05/01 05:53:35;;;;;;;8.80;7.77;;;15.70;87.80;23.10;98967.00;;;;5049751;28;20216;-74
2021/05/01 05:56:00;;;;;;;8.47;6.63;;;15.70;87.70;23.10;98964.00;;;;5066210;28;20273;-73
2021/05/01 05:58:26;;;;;;;9.07;6.77;;;15.70;87.70;23.00;98967.00;;;;5033459;28;20699;-73
2021/05/01 06:00:52;;;;;;;7.77;6.20;;;15.70;87.70;23.10;98968.00;;;;5066444;28;20178;-73
2021/05/01 06:03:19;;;;;;;7.97;7.17;;;15.70;87.60;23.20;98969.00;;;;5066457;28;20716;-75
2021/05/01 06:05:49;;;;;;;7.87;6.87;;;15.70;87.70;23.00;98968.00;;;;5049938;28;20214;-72
2021/05/01 06:08:15;;;;;;;8.97;7.27;;;15.70;87.70;23.10;98964.00;;;;5048899;28;20521;-72
2021/05/01 06:10:45;;;;;;;7.70;6.33;;;15.70;87.60;23.10;98960.00;;;;5066247;28;20907;-72
2021/05/01 06:13:12;;;;;;;7.20;5.47;;;15.70;88.50;23.10;98952.00;;;;5066236;28;20460;-73
2021/05/01 06:15:38;;;;;;;8.03;6.10;;;15.70;87.60;23.00;98949.00;;;;5048753;28;20781;-72
2021/05/01 06:18:04;;;;;;;7.50;6.33;;;15.70;87.60;23.00;98938.00;;;;5032535;28;20439;-73
2021/05/01 06:20:30;;;;;;;8.67;7.03;;;15.70;87.60;23.00;98952.00;;;;5066286;28;20579;-72
2021/05/01 06:22:56;;;;;;;8.37;6.33;;;15.70;87.70;23.00;98941.00;;;;5049006;28;20468;-72
2021/05/01 06:25:22;;;;;;;8.07;6.90;;;15.70;87.70;23.00;98949.00;;;;5049808;28;20706;-72
2021/05/01 06:27:51;;;;;;;7.37;6.47;;;15.70;87.60;23.10;98944.00;;;;5066020;28;20198;-73
2021/05/01 06:30:18;;;;;;;8.13;6.03;;;15.70;87.70;23.10;98945.00;;;;5065377;28;20516;-72
2021/05/01 06:32:44;;;;;;;7.93;6.40;;;15.70;87.70;23.20;98950.00;;;;5048872;28;20479;-72
2021/05/01 06:35:10;;;;;;;7.60;6.17;;;15.70;87.80;23.10;98949.00;;;;5065633;28;20503;-72
2021/05/01 06:37:39;;;;;;;8.30;7.00;;;15.70;87.70;23.10;98957.00;;;;5065363;28;20453;-72
2021/05/01 06:40:09;;;;;;;7.17;6.40;;;15.70;87.70;23.10;98966.00;;;;5049507;28;20492;-72
2021/05/01 06:43:01;;;;;;;7.37;6.23;;;15.70;87.70;23.30;98985.00;;;;5050532;28;20430;-72
2021/05/01 06:45:27;;;;;;;6.90;6.20;;;15.70;88.60;23.30;98968.00;;;;5048984;28;20800;-72
2021/05/01 06:47:55;;;;;;;9.60;7.30;;;15.70;87.70;23.30;98970.00;;;;5065585;28;20526;-72
2021/05/01 06:50:22;;;;;;;8.17;6.60;;;15.70;87.70;23.30;98973.00;;;;5065357;28;20524;-72
2021/05/01 06:52:48;;;;;;;7.53;5.63;;;15.70;87.70;23.40;98967.00;;;;5065932;28;20870;-73
2021/05/01 06:55:19;;;;;;;7.70;6.90;;;15.70;87.70;23.20;98965.00;;;;5065864;28;20416;-72
2021/05/01 06:57:50;;;;;;;7.97;6.20;;;15.70;87.70;23.20;98968.00;;;;5064457;28;20555;-72
2021/05/01 07:00:18;;;;;;;7.90;6.20;;;15.70;87.70;23.30;98971.00;;;;5065751;28;20440;-72
2021/05/01 07:02:46;;;;;;;7.80;6.07;;;15.70;87.70;23.40;98977.00;;;;5032162;28;20438;-73
2021/05/01 07:05:25;;;;;;;10.23;6.70;;;15.70;87.70;23.40;98973.00;;;;5064842;28;20450;-72
2021/05/01 07:07:50;;;;;;;6.90;6.13;;;15.70;87.70;23.50;98973.00;;;;5063892;28;20424;-72
2021/05/01 07:10:18;;;;;;;7.50;6.10;;;15.70;87.70;23.30;98985.00;;;;5048904;28;20418;-73
2021/05/01 07:12:44;;;;;;;7.60;6.80;;;15.70;87.80;23.40;98979.00;;;;5064225;28;20659;-72
2021/05/01 07:15:18;;;;;;;7.20;6.20;;;15.70;87.70;23.40;98986.00;;;;5065388;28;20781;-72
2021/05/01 07:17:51;;;;;;;7.43;6.63;;;15.70;87.80;23.30;98980.00;;;;5049098;28;20510;-72
2021/05/01 07:20:17;;;;;;;8.10;6.63;;;15.70;87.80;23.40;98955.00;;;;5064876;28;20419;-73
2021/05/01 07:22:43;;;;;;;7.40;6.30;;;15.70;87.80;23.50;98982.00;;;;5049158;28;20963;-72
2021/05/01 07:25:11;;;;;;;7.40;6.50;;;15.70;87.80;23.40;98996.00;;;;5064898;28;20937;-73
2021/05/01 07:27:49;;;;;;;7.00;5.97;;;15.70;87.90;23.30;99006.00;;;;5048930;28;20675;-72
2021/05/01 07:30:17;;;;;;;7.57;6.50;;;15.70;87.90;23.30;99014.00;;;;5050257;28;20411;-73
2021/05/01 07:32:44;;;;;;;7.43;6.27;;;15.70;87.90;23.40;99032.00;;;;5050102;28;20848;-73
2021/05/01 07:35:10;;;;;;;8.30;6.50;;;15.70;87.80;23.30;99036.00;;;;5033341;28;20906;-73
2021/05/01 07:37:38;;;;;;;7.10;5.70;;;15.70;87.90;23.20;99037.00;;;;5050806;28;20521;-72
2021/05/01 07:40:07;;;;;;;8.67;6.90;;;15.70;87.80;23.40;99032.00;;;;5066906;28;20410;-73
2021/05/01 07:42:42;;;;;;;7.53;6.50;;;15.70;88.00;23.30;99054.00;;;;5051189;28;20466;-72
2021/05/01 07:45:10;;;;;;;6.23;5.43;;;15.70;87.80;23.20;99019.00;;;;5068119;28;20449;-72
2021/05/01 07:47:36;;;;;;;8.10;6.97;;;15.70;87.80;23.30;99050.00;;;;5051002;28;20455;-72
2021/05/01 07:50:04;;;;;;;7.53;6.57;;;15.70;87.80;23.20;99044.00;;;;5066671;28;20414;-73
2021/05/01 07:52:31;;;;;;;7.27;5.30;;;15.70;88.00;23.20;99044.00;;;;5069176;28;20201;-73
2021/05/01 07:54:58;;;;;;;6.87;5.67;;;15.70;87.90;23.30;99033.00;;;;5033840;28;20418;-73
2021/05/01 07:57:24;;;;;;;7.33;6.27;;;15.70;88.00;23.40;99042.00;;;;5066821;28;20442;-73
2021/05/01 07:59:50;;;;;;;7.50;6.47;;;15.70;88.00;23.30;99040.00;;;;5034788;28;20435;-73
2021/05/01 08:02:15;;;;;;;7.83;6.67;;;15.70;88.00;23.40;99040.00;;;;5067419;28;20474;-73
2021/05/01 08:04:41;;;;;;;6.70;6.00;;;15.70;88.00;23.30;99034.00;;;;5034543;28;20747;-73
2021/05/01 08:07:07;;;;;;;7.40;6.10;;;15.70;88.00;23.50;99032.00;;;;5050655;28;20201;-73
2021/05/01 08:09:33;;;;;;;7.00;6.10;;;15.70;88.00;23.30;99039.00;;;;5035016;28;20185;-73
2021/05/01 08:11:59;;;;;;;7.00;5.90;;;15.70;88.00;23.40;99027.00;;;;5051216;28;20194;-73
2021/05/01 08:14:24;;;;;;;8.67;5.87;;;15.70;88.00;23.40;99024.00;;;;5034450;28;20200;-73
2021/05/01 08:16:50;;;;;;;7.50;6.20;;;15.70;88.80;23.40;99012.00;;;;5068357;28;20253;-73
2021/05/01 08:19:16;;;;;;;8.40;7.30;;;15.70;88.00;23.50;99011.00;;;;5067309;28;20193;-73
2021/05/01 08:21:42;;;;;;;13.30;11.97;;;15.70;87.70;23.50;98999.00;;;;5049732;28;20205;-73
2021/05/01 08:24:08;;;;;;;16.00;14.40;;;15.70;86.40;23.30;98999.00;;;;5034863;28;20797;-73
2021/05/01 08:26:33;;;;;;;16.37;14.77;;;15.60;86.20;23.50;98997.00;;;;5051515;28;20635;-73
2021/05/01 08:29:00;;;;;;;14.47;12.97;;;15.60;86.20;23.40;99006.00;;;;5050962;28;20411;-73
2021/05/01 08:31:26;;;;;;;16.93;15.27;;;15.60;86.00;23.50;98993.00;;;;5031698;28;20304;-73
2021/05/01 08:33:51;;;;;;;15.23;13.63;;;15.60;86.30;23.20;98988.00;;;;5047988;28;20887;-73
2021/05/01 08:36:18;;;;;;;18.83;16.83;;;15.60;86.20;23.40;99000.00;;;;5014364;28;20464;-73
2021/05/01 08:38:44;;;;;;;14.93;12.97;;;15.70;86.40;23.20;99012.00;;;;5031799;28;20289;-73
2021/05/01 08:41:09;;;;;;;20.40;18.10;;;15.70;86.80;23.30;98998.00;;;;5018245;28;20423;-73
2021/05/01 08:43:35;;;;;;;21.70;18.43;;;15.70;86.90;23.30;99001.00;;;;5017968;28;20451;-73
2021/05/01 08:46:11;;;;;;;16.63;14.93;;;15.70;86.60;23.40;99001.00;;;;5035222;28;20182;-73
2021/05/01 08:48:37;;;;;;;19.70;17.77;;;15.70;86.50;23.40;99000.00;;;;5036528;28;20205;-73
2021/05/01 08:51:03;;;;;;;17.10;15.23;;;15.70;86.90;23.40;99002.00;;;;5034805;28;20451;-73
2021/05/01 08:53:29;;;;;;;17.13;15.40;;;15.70;86.70;23.30;98994.00;;;;5053305;28;20217;-74
2021/05/01 08:55:55;;;;;;;17.87;16.07;;;15.70;86.10;23.20;99003.00;;;;5035002;28;20447;-73
2021/05/01 08:58:21;;;;;;;17.30;15.53;;;15.70;86.30;23.10;99012.00;;;;5035043;28;20460;-74
2021/05/01 09:00:48;;;;;;;16.57;14.87;;;15.70;86.50;23.50;99009.00;;;;5002192;28;20948;-73
2021/05/01 09:03:17;;;;;;;18.20;16.40;;;15.80;86.60;23.50;99008.00;;;;5001889;28;20310;-73
2021/05/01 09:05:43;;;;;;;17.57;15.77;;;15.80;86.00;23.40;99001.00;;;;5051183;28;20457;-74
2021/05/01 09:08:09;;;;;;;16.27;14.53;;;15.80;86.10;23.40;98990.00;;;;5018359;28;20526;-73
2021/05/01 09:10:42;;;;;;;15.77;14.27;;;15.80;86.70;23.50;99012.00;;;;5034164;28;20185;-73
2021/05/01 09:13:16;;;;;;;17.37;15.67;;;15.80;86.80;23.20;98998.00;;;;5051476;28;20994;-73
2021/05/01 09:16:09;;;;;;;15.97;14.37;;;15.80;86.80;23.30;98991.00;;;;5017606;28;20462;-73
2021/05/01 09:18:54;;;;;;;16.73;15.13;;;15.80;86.70;23.30;98999.00;;;;5002460;28;20465;-73
2021/05/01 09:21:22;;;;;;;17.13;15.00;;;15.80;86.80;23.40;99010.00;;;;5052996;28;20965;-73
2021/05/01 09:23:48;;;;;;;18.10;16.20;;;15.80;86.80;23.40;99025.00;;;;5070510;28;20448;-73
2021/05/01 09:26:14;;;;;;;18.00;15.90;;;15.80;86.80;23.40;99020.00;;;;5035995;28;20426;-73
2021/05/01 09:28:45;;;;;;;19.63;17.23;;;15.80;86.80;23.60;99020.00;;;;5037400;28;20814;-73
2021/05/01 09:31:13;;;;;;;19.63;16.43;;;15.80;86.90;23.60;99014.00;;;;5037214;28;20425;-73
2021/05/01 09:33:40;;;;;;;19.40;17.30;;;15.80;86.90;23.40;99007.00;;;;5036989;28;20430;-73
2021/05/01 09:36:21;;;;;;;18.97;16.93;;;15.80;87.00;23.50;98997.00;;;;5053606;28;20490;-73
2021/05/01 09:38:51;;;;;;;19.27;17.00;;;15.90;87.00;23.80;98992.00;;;;5054821;28;20501;-74
2021/05/01 09:41:17;;;;;;;17.90;16.20;;;15.90;87.10;23.70;99012.00;;;;5053977;28;20410;-74
2021/05/01 09:44:09;;;;;;;19.67;16.27;;;15.90;87.20;23.50;99004.00;;;;5070405;28;20428;-73
2021/05/01 09:46:38;;;;;;;18.93;17.13;;;15.90;87.10;23.50;98987.00;;;;5069621;28;20422;-73
2021/05/01 09:49:32;;;;;;;18.47;16.67;;;15.90;87.10;23.40;98980.00;;;;5069801;28;20406;-74
2021/05/01 09:52:12;;;;;;;19.67;17.57;;;15.90;87.10;23.60;98955.00;;;;5069868;28;20831;-74
2021/05/01 09:54:46;;;;;;;19.50;17.47;;;15.90;87.10;23.80;98953.00;;;;5021533;28;20556;-74
2021/05/01 09:57:20;;;;;;;18.93;17.03;;;15.90;87.20;23.70;98934.00;;;;5054385;28;20864;-74
2021/05/01 09:59:47;;;;;;;19.57;17.50;;;15.90;87.30;23.80;98938.00;;;;5037095;28;20402;-73
2021/05/01 10:02:22;;;;;;;18.43;16.60;;;15.90;87.30;23.90;98938.00;;;;5052948;28;20429;-74
2021/05/01 10:05:11;;;;;;;22.00;17.97;;;16.00;87.50;23.70;98931.00;;;;5020736;28;20812;-73
2021/05/01 10:07:50;;;;;;;22.87;18.00;;;16.00;87.50;23.80;98917.00;;;;5053332;28;21008;-74
2021/05/01 10:10:16;;;;;;;20.63;18.43;;;16.00;87.50;23.70;98929.00;;;;5038977;28;20439;-74
2021/05/01 10:12:42;;;;;;;19.30;17.30;;;16.00;87.40;23.80;98935.00;;;;5052877;28;20464;-74
2021/05/01 10:15:34;;;;;;;19.20;17.30;;;16.00;87.40;23.80;98927.00;;;;5039333;28;20276;-74
2021/05/01 10:18:18;;;;;;;21.90;19.70;;;16.00;87.40;23.90;98917.00;;;;5028506;28;20468;-74
2021/05/01 10:20:49;;;;;;;19.73;17.73;;;16.00;87.40;23.90;98901.00;;;;5017393;28;20447;-74
2021/05/01 10:23:19;;;;;;;20.40;18.30;;;16.00;87.40;23.80;98912.00;;;;5001151;28;20446;-73
2021/05/01 10:25:46;;;;;;;19.57;17.57;;;16.00;87.40;23.60;98921.00;;;;5048793;28;21024;-74
2021/05/01 10:28:17;;;;;;;19.57;17.57;;;16.10;87.40;23.90;98907.00;;;;5031329;28;20439;-74
2021/05/01 10:30:55;;;;;;;21.13;18.17;;;16.10;87.50;24.10;98902.00;;;;5017414;28;20983;-74
2021/05/01 10:33:31;;;;;;;19.33;17.40;;;16.10;87.50;23.90;98902.00;;;;5033860;28;20509;-74
2021/05/01 10:36:27;;;;;;;18.70;16.90;;;16.10;87.60;24.00;98899.00;;;;5048299;28;20443;-74
2021/05/01 10:39:02;;;;;;;19.77;17.80;;;16.10;87.70;24.20;98908.00;;;;5034707;28;20447;-74
2021/05/01 10:41:31;;;;;;;17.60;15.77;;;16.10;87.80;24.10;98897.00;;;;5047802;28;20538;-74
2021/05/01 10:43:57;;;;;;;18.87;17.00;;;16.10;87.80;24.10;98871.00;;;;5017113;28;20447;-74
2021/05/01 10:46:36;;;;;;;16.63;14.93;;;16.10;88.70;24.10;98894.00;;;;5031262;28;20425;-74
2021/05/01 10:49:11;;;;;;;18.47;16.57;;;16.10;87.80;24.10;98896.00;;;;5031531;28;20423;-74
2021/05/01 10:51:39;;;;;;;17.37;15.57;;;16.10;87.70;24.00;98891.00;;;;5032361;28;20464;-74
2021/05/01 10:54:17;;;;;;;16.43;14.83;;;16.10;87.70;24.10;98884.00;;;;5015808;28;20498;-74